Time;durP1;ratioP1;P1;durP2;ratioP2;P2;SDS_P1;SDS_P2;PMS_P1;PMS_P2;Temp;Humidity;BMP_temperature;BMP_pressure;BME280_temperature;BME280_humidity;BME280_pressure;Samples;Min_cycle;Max_cycle;Signal;HPM_P1;HPM_P2
2023/12/16 00:00:15;;;;;;;21.60;16.57;;;21.30;55.80;;;;;;5093295;28;20342;-66
2023/12/16 00:02:41;;;;;;;20.97;15.60;;;21.30;55.80;;;;;;5093177;28;20205;-67
2023/12/16 00:05:08;;;;;;;21.87;15.27;;;21.30;55.80;;;;;;5093545;28;20756;-66
2023/12/16 00:07:34;;;;;;;22.10;15.80;;;21.30;55.80;;;;;;5093103;28;20438;-67
2023/12/16 00:10:00;;;;;;;20.20;15.50;;;21.30;55.90;;;;;;5093127;28;20407;-66
2023/12/16 00:12:25;;;;;;;23.80;16.10;;;21.30;55.90;;;;;;5093108;28;20418;-66
2023/12/16 00:14:51;;;;;;;22.30;16.57;;;21.30;55.80;;;;;;5093061;28;20658;-67
2023/12/16 00:17:16;;;;;;;21.40;16.43;;;21.30;55.90;;;;;;5092750;28;20220;-66
2023/12/16 00:19:42;;;;;;;19.57;15.47;;;21.30;55.90;;;;;;5091896;28;20303;-66
2023/12/16 00:22:07;;;;;;;20.70;15.53;;;21.30;55.90;;;;;;5092794;28;20667;-67
2023/12/16 00:24:33;;;;;;;22.30;16.90;;;21.30;55.90;;;;;;5091519;28;20184;-66
2023/12/16 00:26:59;;;;;;;17.83;15.13;;;21.30;55.90;;;;;;5057797;28;20674;-66
2023/12/16 00:29:24;;;;;;;18.60;14.37;;;21.30;56.00;;;;;;5092789;28;20574;-66
2023/12/16 00:31:50;;;;;;;19.80;16.77;;;21.30;55.90;;;;;;5093005;28;20263;-66
2023/12/16 00:34:15;;;;;;;20.80;16.40;;;21.30;55.90;;;;;;5091381;28;20177;-67
2023/12/16 00:36:42;;;;;;;21.43;15.67;;;21.30;56.00;;;;;;5092570;28;20190;-67
2023/12/16 00:39:09;;;;;;;20.40;15.93;;;21.30;56.00;;;;;;5074440;28;20173;-67
2023/12/16 00:41:34;;;;;;;17.50;15.10;;;21.30;56.00;;;;;;5091093;28;20992;-66
2023/12/16 00:44:00;;;;;;;20.53;15.13;;;21.30;56.00;;;;;;5074290;28;20416;-66
2023/12/16 00:46:25;;;;;;;17.93;14.33;;;21.30;56.00;;;;;;5092400;28;20185;-66
2023/12/16 00:48:51;;;;;;;20.13;14.80;;;21.30;56.00;;;;;;5091012;28;20177;-67
2023/12/16 00:51:19;;;;;;;16.33;14.03;;;21.30;56.00;;;;;;5091046;28;20180;-65
2023/12/16 00:53:44;;;;;;;18.17;14.30;;;21.30;56.00;;;;;;5073511;28;20174;-66
2023/12/16 00:56:10;;;;;;;19.17;14.20;;;21.30;56.00;;;;;;5091977;28;21289;-66
2023/12/16 00:58:36;;;;;;;15.50;13.73;;;21.30;56.00;;;;;;5092507;28;20227;-67
2023/12/16 01:01:01;;;;;;;21.13;14.70;;;21.30;56.10;;;;;;5092398;28;20262;-66
2023/12/16 01:03:27;;;;;;;18.10;15.00;;;21.30;56.10;;;;;;5092068;28;20558;-66
2023/12/16 01:05:52;;;;;;;18.67;14.03;;;21.30;56.00;;;;;;5090714;28;20239;-67
2023/12/16 01:08:18;;;;;;;21.87;14.47;;;21.30;56.00;;;;;;5073753;28;20189;-66
2023/12/16 01:10:44;;;;;;;17.17;13.60;;;21.30;56.10;;;;;;5091983;28;20169;-66
2023/12/16 01:13:09;;;;;;;15.40;13.53;;;21.30;56.10;;;;;;5091953;28;20201;-67
2023/12/16 01:15:36;;;;;;;19.97;14.07;;;21.30;56.60;;;;;;5092076;28;20186;-67
2023/12/16 01:18:02;;;;;;;17.20;14.33;;;21.30;56.10;;;;;;5090404;28;20197;-67
2023/12/16 01:20:27;;;;;;;16.23;13.00;;;21.20;56.00;;;;;;5090388;28;20754;-67
2023/12/16 01:22:53;;;;;;;17.00;13.70;;;21.30;56.10;;;;;;5090537;28;20209;-67
2023/12/16 01:25:19;;;;;;;15.83;13.30;;;21.20;56.00;;;;;;5091749;28;20579;-66
2023/12/16 01:27:44;;;;;;;15.90;12.97;;;21.20;56.00;;;;;;5091870;28;20189;-67
2023/12/16 01:30:10;;;;;;;18.50;13.83;;;21.30;56.10;;;;;;5090294;28;20264;-66
2023/12/16 01:32:36;;;;;;;21.53;13.93;;;21.20;56.00;;;;;;5090179;28;20636;-66
2023/12/16 01:35:02;;;;;;;15.93;13.73;;;21.20;56.10;;;;;;5090420;28;20830;-66
2023/12/16 01:37:28;;;;;;;16.60;14.13;;;21.20;56.10;;;;;;5089987;28;20209;-67
2023/12/16 01:39:53;;;;;;;16.43;13.40;;;21.20;56.00;;;;;;5091445;28;20416;-66
2023/12/16 01:42:19;;;;;;;17.43;13.90;;;21.30;56.10;;;;;;5089919;28;20487;-66
2023/12/16 01:44:44;;;;;;;15.60;12.97;;;21.20;56.10;;;;;;5090019;28;20211;-67
2023/12/16 01:47:10;;;;;;;19.67;13.70;;;21.30;56.10;;;;;;5089841;28;20698;-66
2023/12/16 01:49:37;;;;;;;16.77;12.50;;;21.20;56.10;;;;;;5089885;28;20209;-66
2023/12/16 01:52:05;;;;;;;15.80;13.70;;;21.20;56.10;;;;;;5089849;28;20177;-66
2023/12/16 01:54:32;;;;;;;16.90;13.20;;;21.20;56.10;;;;;;5089706;28;20434;-67
2023/12/16 01:57:00;;;;;;;16.10;13.20;;;21.20;56.10;;;;;;5091177;28;20446;-67
2023/12/16 01:59:27;;;;;;;18.33;13.40;;;21.20;56.10;;;;;;5091094;28;20823;-66
2023/12/16 02:01:54;;;;;;;19.73;13.43;;;21.20;56.10;;;;;;5089671;28;20968;-66
2023/12/16 02:04:20;;;;;;;18.60;13.10;;;21.20;56.10;;;;;;5091060;28;20453;-67
2023/12/16 02:06:45;;;;;;;16.70;12.50;;;21.20;56.10;;;;;;5090564;28;20423;-67
2023/12/16 02:09:14;;;;;;;14.50;12.47;;;21.20;56.10;;;;;;5072614;28;20174;-66
2023/12/16 02:11:39;;;;;;;15.30;12.80;;;21.20;56.10;;;;;;5089460;28;20189;-65
2023/12/16 02:14:06;;;;;;;14.00;12.10;;;21.20;56.10;;;;;;5089345;28;20412;-66
2023/12/16 02:16:31;;;;;;;14.30;11.50;;;21.20;56.70;;;;;;5090727;28;20198;-65
2023/12/16 02:18:57;;;;;;;13.67;11.80;;;21.20;56.70;;;;;;5089258;28;20442;-67
2023/12/16 02:21:23;;;;;;;14.13;11.60;;;21.20;56.10;;;;;;5089234;28;20177;-66
2023/12/16 02:23:49;;;;;;;14.73;12.67;;;21.20;56.10;;;;;;5089416;28;20430;-66
2023/12/16 02:26:14;;;;;;;15.27;12.77;;;21.20;56.20;;;;;;5090612;28;20194;-66
2023/12/16 02:28:40;;;;;;;14.90;11.80;;;21.20;56.20;;;;;;5090596;28;20234;-67
2023/12/16 02:31:06;;;;;;;16.83;11.57;;;21.20;56.20;;;;;;5089540;28;20169;-67
2023/12/16 02:33:31;;;;;;;14.30;11.53;;;21.20;56.20;;;;;;5090613;28;20199;-67
2023/12/16 02:35:59;;;;;;;15.13;11.33;;;21.20;56.20;;;;;;5090756;28;20229;-65
2023/12/16 02:38:24;;;;;;;16.20;12.23;;;21.20;56.20;;;;;;5090456;28;20205;-67
2023/12/16 02:40:50;;;;;;;16.43;12.90;;;21.20;56.20;;;;;;5072206;28;20442;-67
2023/12/16 02:43:16;;;;;;;16.90;11.43;;;21.20;56.20;;;;;;5089100;28;20711;-67
2023/12/16 02:45:42;;;;;;;14.20;11.10;;;21.20;56.20;;;;;;5090442;28;20490;-67
2023/12/16 02:48:07;;;;;;;14.03;11.67;;;21.20;56.20;;;;;;5090360;28;20734;-66
2023/12/16 02:50:33;;;;;;;18.13;11.80;;;21.20;56.20;;;;;;5090624;28;20181;-67
2023/12/16 02:52:59;;;;;;;15.17;11.70;;;21.20;56.20;;;;;;5090409;28;20249;-67
2023/12/16 02:55:25;;;;;;;16.10;11.87;;;21.20;56.20;;;;;;5089013;28;20185;-66
2023/12/16 02:57:51;;;;;;;13.23;11.73;;;21.20;56.20;;;;;;5088859;28;20415;-66
2023/12/16 03:00:16;;;;;;;13.93;12.10;;;21.20;56.20;;;;;;5088908;28;20173;-66
2023/12/16 03:02:42;;;;;;;12.70;10.87;;;21.20;56.20;;;;;;5088751;28;20209;-66
2023/12/16 03:05:08;;;;;;;12.17;10.50;;;21.20;56.20;;;;;;5089183;28;20177;-67
2023/12/16 03:07:33;;;;;;;14.00;11.13;;;21.20;56.20;;;;;;5088687;28;20552;-66
2023/12/16 03:09:59;;;;;;;15.33;11.47;;;21.20;56.20;;;;;;5072059;28;20209;-67
2023/12/16 03:12:24;;;;;;;12.57;11.27;;;21.20;56.20;;;;;;5088692;28;20265;-67
2023/12/16 03:14:50;;;;;;;15.23;11.70;;;21.20;56.80;;;;;;5087776;28;20177;-67
2023/12/16 03:17:16;;;;;;;12.17;10.80;;;21.20;56.20;;;;;;5076136;28;20205;-66
2023/12/16 03:19:42;;;;;;;12.33;10.67;;;21.20;56.20;;;;;;5093653;28;20416;-67
2023/12/16 03:22:08;;;;;;;13.40;10.43;;;21.20;56.20;;;;;;5092626;28;20223;-67
2023/12/16 03:24:33;;;;;;;13.90;10.33;;;21.20;56.20;;;;;;5093477;28;20660;-66
2023/12/16 03:26:59;;;;;;;13.20;11.80;;;21.20;56.20;;;;;;5094004;28;20434;-66
2023/12/16 03:29:25;;;;;;;12.50;11.20;;;21.20;56.20;;;;;;5093588;28;20837;-66
2023/12/16 03:31:50;;;;;;;12.73;10.20;;;21.20;56.20;;;;;;5093489;28;20279;-67
2023/12/16 03:34:16;;;;;;;13.80;11.67;;;21.20;56.20;;;;;;5094270;28;20632;-66
2023/12/16 03:36:42;;;;;;;11.43;10.07;;;21.20;56.20;;;;;;5093890;28;20193;-67
2023/12/16 03:39:07;;;;;;;15.40;11.27;;;21.20;56.20;;;;;;5093923;28;20539;-66
2023/12/16 03:41:34;;;;;;;12.23;11.07;;;21.20;56.20;;;;;;5093761;28;20209;-66
2023/12/16 03:44:00;;;;;;;14.40;9.90;;;21.20;56.20;;;;;;5093839;28;20180;-66
2023/12/16 03:46:26;;;;;;;11.70;10.07;;;21.20;56.20;;;;;;5093815;28;20423;-66
2023/12/16 03:48:52;;;;;;;13.43;10.90;;;21.20;56.30;;;;;;5093655;28;20408;-67
2023/12/16 03:51:21;;;;;;;13.63;11.20;;;21.20;56.20;;;;;;5093497;28;20411;-67
2023/12/16 03:53:46;;;;;;;14.83;10.27;;;21.20;56.20;;;;;;5092202;28;20403;-67
2023/12/16 03:56:12;;;;;;;12.43;10.47;;;21.20;56.30;;;;;;5093425;28;21025;-66
2023/12/16 03:58:37;;;;;;;13.63;9.97;;;21.20;56.20;;;;;;5093476;28;20253;-67
2023/12/16 04:01:04;;;;;;;10.77;9.60;;;21.20;56.20;;;;;;5093422;28;20177;-66
2023/12/16 04:03:30;;;;;;;12.53;9.83;;;21.20;56.20;;;;;;5093291;28;20207;-67
2023/12/16 04:05:55;;;;;;;12.20;9.73;;;21.20;56.20;;;;;;5093292;28;20499;-67
2023/12/16 04:08:21;;;;;;;13.57;10.30;;;21.20;56.20;;;;;;5093340;28;20162;-66
2023/12/16 04:10:46;;;;;;;10.53;9.40;;;21.20;56.80;;;;;;5091810;28;20230;-66
2023/12/16 04:13:14;;;;;;;13.77;10.87;;;21.20;56.20;;;;;;5093137;28;20302;-66
2023/12/16 04:15:40;;;;;;;10.70;9.53;;;21.20;56.30;;;;;;5093075;28;20177;-67
2023/12/16 04:18:05;;;;;;;12.10;10.00;;;21.20;56.30;;;;;;5092985;28;20435;-66
2023/12/16 04:20:31;;;;;;;11.20;8.97;;;21.20;56.30;;;;;;5093012;28;20173;-67
2023/12/16 04:22:57;;;;;;;12.53;9.90;;;21.20;56.30;;;;;;5092950;28;20205;-67
2023/12/16 04:25:22;;;;;;;11.00;9.40;;;21.20;56.30;;;;;;5092927;28;20244;-67
2023/12/16 04:27:48;;;;;;;12.97;10.43;;;21.20;56.30;;;;;;5092810;28;20193;-67
2023/12/16 04:30:13;;;;;;;12.67;9.80;;;21.20;56.30;;;;;;5091290;28;20216;-66
2023/12/16 04:32:39;;;;;;;12.00;9.60;;;21.20;56.30;;;;;;5092799;28;20181;-66
2023/12/16 04:35:05;;;;;;;10.60;8.90;;;21.20;56.30;;;;;;5092765;28;20177;-67
2023/12/16 04:37:31;;;;;;;11.50;9.13;;;21.20;56.30;;;;;;5092592;28;20687;-66
2023/12/16 04:39:56;;;;;;;10.23;9.10;;;21.10;56.20;;;;;;5092914;28;20414;-66
2023/12/16 04:42:22;;;;;;;10.87;9.13;;;21.10;56.20;;;;;;5092487;28;20201;-67
2023/12/16 04:44:47;;;;;;;13.00;10.80;;;21.20;56.30;;;;;;5092604;28;20551;-66
2023/12/16 04:47:13;;;;;;;10.83;9.53;;;21.20;56.30;;;;;;5092419;28;20562;-66
2023/12/16 04:49:40;;;;;;;12.97;10.53;;;21.20;56.40;;;;;;5092488;28;20633;-67
2023/12/16 04:52:05;;;;;;;13.73;9.10;;;21.10;56.20;;;;;;5092373;28;20182;-67
2023/12/16 04:54:31;;;;;;;12.50;9.80;;;21.20;56.30;;;;;;5092308;28;20487;-66
2023/12/16 04:56:56;;;;;;;10.13;9.13;;;21.20;56.30;;;;;;5092277;28;20200;-66
2023/12/16 04:59:22;;;;;;;11.23;10.03;;;21.20;56.30;;;;;;5092319;28;20185;-66
2023/12/16 05:01:48;;;;;;;10.73;9.50;;;21.20;56.30;;;;;;5092102;28;20204;-66
2023/12/16 05:04:13;;;;;;;9.93;8.90;;;21.10;56.30;;;;;;5092167;28;20173;-66
2023/12/16 05:06:39;;;;;;;9.93;9.00;;;21.10;56.20;;;;;;5092092;28;20190;-67
2023/12/16 05:09:12;;;;;;;10.40;8.70;;;21.10;56.30;;;;;;5090721;28;20589;-67
2023/12/16 05:11:38;;;;;;;12.50;9.83;;;21.20;56.40;;;;;;5092060;28;20158;-66
2023/12/16 05:14:03;;;;;;;10.40;9.27;;;21.10;56.20;;;;;;5091967;28;21074;-66
2023/12/16 05:16:29;;;;;;;10.37;8.83;;;21.10;56.30;;;;;;5091851;28;21068;-66
2023/12/16 05:18:54;;;;;;;10.73;8.70;;;21.20;56.30;;;;;;5091781;28;20606;-66
2023/12/16 05:21:20;;;;;;;9.40;8.13;;;21.20;56.30;;;;;;5091700;28;20554;-66
2023/12/16 05:23:46;;;;;;;9.93;8.90;;;21.20;56.30;;;;;;5092121;28;20184;-67
2023/12/16 05:26:12;;;;;;;10.43;9.03;;;21.20;56.30;;;;;;5091663;28;20603;-67
2023/12/16 05:28:37;;;;;;;10.40;8.93;;;21.10;56.20;;;;;;5091715;28;20226;-67
2023/12/16 05:31:03;;;;;;;9.77;8.27;;;21.10;56.20;;;;;;5091727;28;20222;-67
2023/12/16 05:33:29;;;;;;;9.30;8.07;;;21.10;56.20;;;;;;5091614;28;20174;-67
2023/12/16 05:35:55;;;;;;;10.07;7.90;;;21.10;56.30;;;;;;5091495;28;20193;-67
2023/12/16 05:38:20;;;;;;;9.37;7.80;;;21.10;56.20;;;;;;5091838;28;20181;-67
2023/12/16 05:40:46;;;;;;;9.57;8.60;;;21.10;56.20;;;;;;5090836;28;20184;-67
2023/12/16 05:43:11;;;;;;;10.90;8.00;;;21.10;56.30;;;;;;5091427;28;20201;-67
2023/12/16 05:45:37;;;;;;;10.13;9.07;;;21.10;56.30;;;;;;5091343;28;20628;-67
2023/12/16 05:48:03;;;;;;;8.20;7.40;;;21.10;56.30;;;;;;5091429;28;20181;-67
2023/12/16 05:50:28;;;;;;;9.43;8.37;;;21.10;56.30;;;;;;5091304;28;20196;-66
2023/12/16 05:52:54;;;;;;;10.60;9.50;;;21.10;56.30;;;;;;5091228;28;20633;-67
2023/12/16 05:55:19;;;;;;;9.50;8.47;;;21.10;56.30;;;;;;5091352;28;20260;-67
2023/12/16 05:57:45;;;;;;;9.87;8.40;;;21.10;56.30;;;;;;5091208;28;20205;-66
2023/12/16 06:00:11;;;;;;;10.87;8.43;;;21.10;56.30;;;;;;5091474;28;20264;-67
2023/12/16 06:02:36;;;;;;;9.33;8.03;;;21.10;56.30;;;;;;5089752;28;20599;-67
2023/12/16 06:05:03;;;;;;;9.47;8.40;;;21.10;56.30;;;;;;5091152;28;20174;-67
2023/12/16 06:07:29;;;;;;;10.43;9.30;;;21.10;56.30;;;;;;5091013;28;20190;-66
2023/12/16 06:09:55;;;;;;;11.10;7.67;;;21.10;56.30;;;;;;5090967;28;20422;-67
2023/12/16 06:12:20;;;;;;;9.70;8.80;;;21.10;56.30;;;;;;5090984;28;20189;-67
2023/12/16 06:14:46;;;;;;;8.73;7.57;;;21.10;56.30;;;;;;5091220;28;20185;-67
2023/12/16 06:17:12;;;;;;;9.00;7.60;;;21.10;56.40;;;;;;5090840;28;20672;-66
2023/12/16 06:19:38;;;;;;;8.60;7.70;;;21.10;56.40;;;;;;5090900;28;20458;-66
2023/12/16 06:22:03;;;;;;;8.83;7.93;;;21.10;56.40;;;;;;5090697;28;20736;-66
2023/12/16 06:24:29;;;;;;;9.50;7.87;;;21.10;56.40;;;;;;5091391;28;20173;-67
2023/12/16 06:26:55;;;;;;;9.87;8.23;;;21.10;56.90;;;;;;5091069;28;20251;-66
2023/12/16 06:29:20;;;;;;;8.80;7.90;;;21.10;56.40;;;;;;5090676;28;20181;-67
2023/12/16 06:31:46;;;;;;;8.57;7.63;;;21.10;56.40;;;;;;5091102;28;20605;-66
2023/12/16 06:34:11;;;;;;;9.97;7.60;;;21.10;56.40;;;;;;5090646;28;20209;-66
2023/12/16 06:36:37;;;;;;;8.70;7.40;;;21.10;56.40;;;;;;5090525;28;20605;-67
2023/12/16 06:39:03;;;;;;;8.03;7.23;;;21.10;56.40;;;;;;5090566;28;20220;-66
2023/12/16 06:41:30;;;;;;;9.33;7.07;;;21.10;56.40;;;;;;5090448;28;20170;-66
2023/12/16 06:43:55;;;;;;;8.50;7.07;;;21.10;56.40;;;;;;5090522;28;20494;-64
2023/12/16 06:46:23;;;;;;;9.27;7.43;;;21.10;56.40;;;;;;5089003;28;20519;-67
2023/12/16 06:48:49;;;;;;;8.30;6.80;;;21.10;56.40;;;;;;5090663;28;20250;-67
2023/12/16 06:51:15;;;;;;;9.03;7.50;;;21.10;56.40;;;;;;5090419;28;20754;-66
2023/12/16 06:53:41;;;;;;;8.63;7.20;;;21.10;56.40;;;;;;5089812;28;20418;-67
2023/12/16 06:56:10;;;;;;;8.73;7.80;;;21.10;56.30;;;;;;5090274;28;20316;-67
2023/12/16 06:58:37;;;;;;;8.27;7.20;;;21.10;56.90;;;;;;5088899;28;20210;-66
2023/12/16 07:01:02;;;;;;;7.63;6.83;;;21.10;56.30;;;;;;5090254;28;20450;-67
2023/12/16 07:03:28;;;;;;;9.30;7.37;;;21.10;56.30;;;;;;5090067;28;20985;-66
2023/12/16 07:05:55;;;;;;;9.60;7.30;;;21.10;56.30;;;;;;5090077;28;20197;-67
2023/12/16 07:08:20;;;;;;;8.40;7.50;;;21.10;56.30;;;;;;5090381;28;20336;-66
2023/12/16 07:10:46;;;;;;;7.93;6.80;;;21.10;56.30;;;;;;5090160;28;20411;-66
2023/12/16 07:13:11;;;;;;;9.03;7.83;;;21.10;56.30;;;;;;5090407;28;20192;-67
2023/12/16 07:15:38;;;;;;;8.23;7.13;;;21.10;56.90;;;;;;5090102;28;20302;-66
2023/12/16 07:18:04;;;;;;;8.07;7.00;;;21.10;56.40;;;;;;5090149;28;20755;-67
2023/12/16 07:20:30;;;;;;;9.60;8.00;;;21.10;56.30;;;;;;5090090;28;20447;-66
2023/12/16 07:22:55;;;;;;;8.33;7.40;;;21.10;56.30;;;;;;5089992;28;20885;-67
2023/12/16 07:25:21;;;;;;;7.97;7.10;;;21.10;56.40;;;;;;5090094;28;20580;-65
2023/12/16 07:27:47;;;;;;;10.30;8.20;;;21.10;56.40;;;;;;5090021;28;20277;-66
2023/12/16 07:30:13;;;;;;;7.97;7.17;;;21.10;56.40;;;;;;5090031;28;20174;-67
2023/12/16 07:32:40;;;;;;;10.20;7.90;;;21.10;56.40;;;;;;5089953;28;20404;-66
2023/12/16 07:35:12;;;;;;;10.30;9.03;;;21.10;56.40;;;;;;5088647;28;20419;-67
2023/12/16 07:37:42;;;;;;;8.50;7.47;;;21.10;56.40;;;;;;5089972;28;20431;-67
2023/12/16 07:40:11;;;;;;;7.40;6.60;;;21.10;56.40;;;;;;5089919;28;20429;-67
2023/12/16 07:42:38;;;;;;;9.50;8.27;;;21.10;56.40;;;;;;5089881;28;20953;-67
2023/12/16 07:45:04;;;;;;;7.93;6.80;;;21.10;56.40;;;;;;5089855;28;20407;-67
2023/12/16 07:47:31;;;;;;;7.50;6.20;;;21.10;56.60;;;;;;5089826;28;20438;-67
2023/12/16 07:49:57;;;;;;;9.33;8.37;;;21.10;56.40;;;;;;5089708;28;20403;-66
2023/12/16 07:52:23;;;;;;;9.60;7.73;;;21.10;56.40;;;;;;5071466;28;20418;-67
2023/12/16 07:54:48;;;;;;;8.50;7.47;;;21.10;56.40;;;;;;5071453;28;20780;-66
2023/12/16 07:57:14;;;;;;;7.70;6.93;;;21.10;56.40;;;;;;5089631;28;20247;-67
2023/12/16 07:59:41;;;;;;;8.40;7.50;;;21.10;56.40;;;;;;5088279;28;20182;-67
2023/12/16 08:02:08;;;;;;;7.73;6.40;;;21.10;56.40;;;;;;5088259;28;20205;-67
2023/12/16 08:04:34;;;;;;;8.67;7.03;;;21.10;56.40;;;;;;5092203;28;20411;-67
2023/12/16 08:07:00;;;;;;;7.20;6.47;;;21.10;56.40;;;;;;5091977;28;21084;-67
2023/12/16 08:09:26;;;;;;;8.27;7.00;;;21.10;56.40;;;;;;5093082;28;20486;-67
2023/12/16 08:11:57;;;;;;;7.67;6.73;;;21.10;56.40;;;;;;5093528;28;20184;-67
2023/12/16 08:14:24;;;;;;;6.93;6.23;;;21.10;56.50;;;;;;5091862;28;20173;-67
2023/12/16 08:16:49;;;;;;;7.80;6.70;;;21.10;56.50;;;;;;5081321;28;20491;-67
2023/12/16 08:19:15;;;;;;;9.40;6.40;;;21.10;56.40;;;;;;5073639;28;20491;-68
2023/12/16 08:21:40;;;;;;;8.73;6.60;;;21.10;56.40;;;;;;5072560;28;20201;-68
2023/12/16 08:24:06;;;;;;;7.50;6.67;;;21.20;56.50;;;;;;5072389;28;20257;-68
2023/12/16 08:26:32;;;;;;;6.47;5.80;;;21.20;56.50;;;;;;5073612;28;20187;-68
2023/12/16 08:28:57;;;;;;;7.40;6.43;;;21.20;56.50;;;;;;5074711;28;20181;-68
2023/12/16 08:31:23;;;;;;;7.23;5.63;;;21.20;56.50;;;;;;5056853;28;20198;-68
2023/12/16 08:33:49;;;;;;;46.40;27.13;;;21.20;56.40;;;;;;5074743;28;20254;-68
2023/12/16 08:36:14;;;;;;;52.20;27.27;;;21.20;56.10;;;;;;5074839;28;20560;-68
2023/12/16 08:38:40;;;;;;;47.23;26.57;;;21.20;55.70;;;;;;5074076;28;20190;-68
2023/12/16 08:41:08;;;;;;;41.23;24.87;;;21.20;55.40;;;;;;5073597;28;20204;-68
2023/12/16 08:43:37;;;;;;;36.90;23.87;;;21.20;55.50;;;;;;5073821;28;20289;-68
2023/12/16 08:46:03;;;;;;;40.23;20.57;;;21.20;55.80;;;;;;5074032;28;20817;-68
2023/12/16 08:48:29;;;;;;;34.93;20.20;;;21.20;55.80;;;;;;5075130;28;20413;-68
2023/12/16 08:50:57;;;;;;;31.13;19.87;;;21.20;55.70;;;;;;5075144;28;20419;-68
2023/12/16 08:53:24;;;;;;;32.60;22.50;;;21.20;55.80;;;;;;5074915;28;20185;-68
2023/12/16 08:55:50;;;;;;;33.73;24.17;;;21.20;55.80;;;;;;5074758;28;20437;-68
2023/12/16 08:58:16;;;;;;;43.10;26.30;;;21.20;55.80;;;;;;5073004;28;20439;-69
2023/12/16 09:00:42;;;;;;;49.30;31.73;;;21.20;55.90;;;;;;5056219;28;20190;-68
2023/12/16 09:03:08;;;;;;;57.87;36.17;;;21.20;55.90;;;;;;5072478;28;20506;-68
2023/12/16 09:05:34;;;;;;;99.43;57.63;;;21.20;55.90;;;;;;5074158;28;20182;-69
2023/12/16 09:08:00;;;;;;;122.13;61.07;;;21.20;55.90;;;;;;5072818;28;20661;-68
2023/12/16 09:10:25;;;;;;;86.37;50.33;;;21.20;55.90;;;;;;5056114;28;20420;-68
2023/12/16 09:12:51;;;;;;;76.93;42.10;;;21.20;55.90;;;;;;5074701;28;20589;-68
2023/12/16 09:15:17;;;;;;;92.53;55.83;;;21.20;55.90;;;;;;5054748;28;20181;-68
2023/12/16 09:17:44;;;;;;;95.00;51.27;;;21.20;55.90;;;;;;5072187;28;20987;-68
2023/12/16 09:20:10;;;;;;;96.27;50.53;;;21.20;55.90;;;;;;5072484;28;20929;-69
2023/12/16 09:22:36;;;;;;;96.03;52.73;;;21.20;55.90;;;;;;5072330;28;20456;-68
2023/12/16 09:25:04;;;;;;;103.20;60.90;;;21.20;55.90;;;;;;5072876;28;20413;-69
2023/12/16 09:27:29;;;;;;;102.00;57.50;;;21.20;55.90;;;;;;5072361;28;20516;-69
2023/12/16 09:29:55;;;;;;;125.43;63.60;;;21.20;56.00;;;;;;5072295;28;20777;-68
2023/12/16 09:32:21;;;;;;;99.13;58.43;;;21.20;56.00;;;;;;5073169;28;20308;-68
2023/12/16 09:34:47;;;;;;;98.60;57.97;;;21.20;56.00;;;;;;5071660;28;20190;-68
2023/12/16 09:37:14;;;;;;;117.00;65.70;;;21.20;56.00;;;;;;5072929;28;20225;-68
2023/12/16 09:39:40;;;;;;;94.77;59.43;;;21.20;56.00;;;;;;5072739;28;20883;-67
2023/12/16 09:42:06;;;;;;;119.63;64.97;;;21.20;56.10;;;;;;5071500;28;20475;-68
2023/12/16 09:44:37;;;;;;;124.53;68.13;;;21.20;56.10;;;;;;5072929;28;20412;-68
2023/12/16 09:47:03;;;;;;;109.90;65.80;;;21.20;56.10;;;;;;5071402;28;20428;-68
2023/12/16 09:49:32;;;;;;;138.97;73.20;;;21.20;56.10;;;;;;5073296;28;20454;-68
2023/12/16 09:51:58;;;;;;;129.33;71.03;;;21.20;56.10;;;;;;5073353;28;20443;-68
2023/12/16 09:54:24;;;;;;;123.63;68.87;;;21.20;56.00;;;;;;5072811;28;20442;-68
2023/12/16 09:56:50;;;;;;;137.30;66.93;;;21.20;56.00;;;;;;5053913;28;20198;-68
2023/12/16 09:59:19;;;;;;;111.93;63.77;;;21.20;56.00;;;;;;5072953;28;20213;-68
2023/12/16 10:01:52;;;;;;;103.37;57.67;;;21.20;55.90;;;;;;5072779;28;20505;-68
2023/12/16 10:04:19;;;;;;;103.70;59.43;;;21.20;56.50;;;;;;5072230;28;20450;-68
2023/12/16 10:06:44;;;;;;;79.37;50.23;;;21.20;55.90;;;;;;5072455;28;20420;-68
2023/12/16 10:09:10;;;;;;;96.93;53.67;;;21.20;56.00;;;;;;5071284;28;20417;-68
2023/12/16 10:11:42;;;;;;;98.30;54.37;;;21.20;56.00;;;;;;5072068;28;20174;-68
2023/12/16 10:14:08;;;;;;;103.87;57.67;;;21.20;55.90;;;;;;5071013;28;20174;-68
2023/12/16 10:16:34;;;;;;;92.77;49.83;;;21.20;55.90;;;;;;5071520;28;20553;-68
2023/12/16 10:18:59;;;;;;;88.10;49.93;;;21.20;55.90;;;;;;5070279;28;20190;-68
2023/12/16 10:21:27;;;;;;;73.67;42.60;;;21.20;55.80;;;;;;5072037;28;20440;-68
2023/12/16 10:23:56;;;;;;;73.57;42.57;;;21.20;55.80;;;;;;5070240;28;20231;-68
2023/12/16 10:26:21;;;;;;;70.10;42.50;;;21.20;55.80;;;;;;5071546;28;20474;-68
2023/12/16 10:28:47;;;;;;;60.37;37.93;;;21.20;55.50;;;;;;5070145;28;20405;-68
2023/12/16 10:31:15;;;;;;;70.10;39.87;;;21.20;55.10;;;;;;5070625;28;20270;-68
2023/12/16 10:33:41;;;;;;;68.87;39.27;;;21.20;55.00;;;;;;5071731;28;20409;-68
2023/12/16 10:36:08;;;;;;;60.23;35.70;;;21.20;54.90;;;;;;5070942;28;20430;-68
2023/12/16 10:38:33;;;;;;;67.87;37.70;;;21.20;54.80;;;;;;5071501;28;20471;-68
2023/12/16 10:40:59;;;;;;;53.67;34.10;;;21.20;54.80;;;;;;5071553;28;20488;-68
2023/12/16 10:43:24;;;;;;;63.83;36.77;;;21.10;54.60;;;;;;5069929;28;20198;-69
2023/12/16 10:45:51;;;;;;;55.53;31.60;;;21.10;54.60;;;;;;5071231;28;20202;-68
2023/12/16 10:48:21;;;;;;;50.93;32.20;;;21.10;54.50;;;;;;5071530;28;20210;-68
2023/12/16 10:50:48;;;;;;;59.17;33.50;;;21.10;54.60;;;;;;5053316;28;20915;-68
2023/12/16 10:53:36;;;;;;;58.37;30.70;;;21.10;54.50;;;;;;5071749;28;20417;-68
2023/12/16 10:56:06;;;;;;;60.53;35.60;;;21.20;55.20;;;;;;5070912;28;20439;-68
2023/12/16 10:58:38;;;;;;;59.00;36.00;;;21.10;55.20;;;;;;5071950;28;20424;-68
2023/12/16 11:01:21;;;;;;;60.20;35.97;;;21.10;55.30;;;;;;5071346;28;20891;-68
2023/12/16 11:03:56;;;;;;;72.37;37.30;;;21.10;55.30;;;;;;5071807;28;20440;-69
2023/12/16 11:06:35;;;;;;;60.47;34.30;;;21.10;55.30;;;;;;5071488;28;20473;-72
2023/12/16 11:09:03;;;;;;;67.83;33.50;;;21.10;55.40;;;;;;5069904;28;20416;-69
2023/12/16 11:11:30;;;;;;;60.07;33.43;;;21.20;55.50;;;;;;5068764;28;20764;-71
2023/12/16 11:13:59;;;;;;;56.40;31.40;;;21.10;55.50;;;;;;5070502;28;20416;-71
2023/12/16 11:16:41;;;;;;;56.13;32.23;;;21.20;55.80;;;;;;5069269;28;20428;-69
2023/12/16 11:19:09;;;;;;;57.37;30.50;;;21.20;55.80;;;;;;5068950;28;20424;-69
2023/12/16 11:21:39;;;;;;;49.83;30.00;;;21.20;55.90;;;;;;5074874;28;20458;-69
2023/12/16 11:24:38;;;;;;;51.37;33.33;;;21.20;55.90;;;;;;5089890;28;20415;-72
2023/12/16 11:27:09;;;;;;;47.80;29.50;;;21.20;55.90;;;;;;5089441;28;20431;-71
2023/12/16 11:29:44;;;;;;;49.97;28.30;;;21.20;55.90;;;;;;5089971;28;20464;-72
2023/12/16 11:32:27;;;;;;;44.47;26.20;;;21.20;55.90;;;;;;5091087;28;20954;-73
2023/12/16 11:34:53;;;;;;;45.83;28.50;;;21.20;55.90;;;;;;5090042;28;20426;-72
2023/12/16 11:37:37;;;;;;;47.70;28.53;;;21.20;55.90;;;;;;5090423;28;20510;-69
2023/12/16 11:40:04;;;;;;;39.53;24.80;;;21.30;56.00;;;;;;5094082;28;20639;-69
2023/12/16 11:42:49;;;;;;;42.27;26.93;;;21.20;55.90;;;;;;5094247;28;20479;-70
2023/12/16 11:45:40;;;;;;;42.63;26.47;;;21.30;56.00;;;;;;5094611;28;20403;-68
2023/12/16 11:48:08;;;;;;;38.77;25.67;;;21.30;55.90;;;;;;5094450;28;20404;-68
2023/12/16 11:50:34;;;;;;;44.20;27.40;;;21.30;56.00;;;;;;5092491;28;20430;-68
2023/12/16 11:53:01;;;;;;;46.93;26.40;;;21.30;56.00;;;;;;5094380;28;20419;-72
2023/12/16 11:55:27;;;;;;;41.17;25.53;;;21.30;56.00;;;;;;5094340;28;20877;-69
2023/12/16 11:57:53;;;;;;;42.37;24.93;;;21.30;56.00;;;;;;5094204;28;20410;-69
2023/12/16 12:00:19;;;;;;;40.27;25.30;;;21.30;56.00;;;;;;5075739;28;20411;-69
2023/12/16 12:02:49;;;;;;;40.27;25.30;;;21.30;56.00;;;;;;5094464;28;20225;-69
2023/12/16 12:05:22;;;;;;;41.17;24.13;;;21.30;55.90;;;;;;5094050;28;20407;-69
2023/12/16 12:07:48;;;;;;;39.40;24.33;;;21.30;55.90;;;;;;5093915;28;20431;-69
2023/12/16 12:10:14;;;;;;;35.10;23.07;;;21.30;55.90;;;;;;5094108;28;20432;-69
2023/12/16 12:12:39;;;;;;;40.03;23.73;;;21.30;55.90;;;;;;5094815;28;20446;-69
2023/12/16 12:15:09;;;;;;;36.00;22.13;;;21.30;55.90;;;;;;5092836;28;20261;-69
2023/12/16 12:17:35;;;;;;;38.40;21.30;;;21.30;55.80;;;;;;5092500;28;20671;-69
2023/12/16 12:20:01;;;;;;;38.40;22.20;;;21.30;55.90;;;;;;5075367;28;21262;-69
2023/12/16 12:22:28;;;;;;;39.07;21.43;;;21.30;55.80;;;;;;5093468;28;20481;-69
2023/12/16 12:24:56;;;;;;;32.30;21.10;;;21.30;55.80;;;;;;5092801;28;20176;-69
2023/12/16 12:27:21;;;;;;;38.40;20.77;;;21.30;55.80;;;;;;5091959;28;20443;-68
2023/12/16 12:30:04;;;;;;;35.20;20.37;;;21.30;55.80;;;;;;5093323;28;20408;-68